Startpagina
METAR-TAF:

METAR-TAF

Vliegvelden :

Trang, Thailand

breedte: 07-31N, lengte: 099-37E, hoogte: 14 m

Actueel weer

Dit bericht is 1 uur en het 11 minuten geleden gemaakt, om 09:00 UTC
Wind 6 kt uit het noordoosten
Temperatuur 33°C
Vochtigheid 53%
Druk 1008 hPa
Zicht 10 km of meer
Verspreide wolken op 2000 ft

METAR: VTST 050900Z 05006KT 9999 SCT020 33/22 Q1008 NOSIG

Tijdstip: 17:11 (10:11 UTC)

Verwachting

Dit bericht is 5 uur en het 11 minuten geleden gemaakt, om 05:00 UTC
Verwachting geldig van 05 om 06 UTC tot 06 om 06 UTC
Wind 10 kt uit het oostnoordoosten
Zicht 10 km of meer
Weinig wolken op 2000 ft
Wijzigt naar
van 05 om 14 UTC tot 05 om 16 UTC
Wind kt uit het noorden

TAF: VTST 050500Z 0506/0606 07010KT 9999 FEW020 BECMG 0514/0516 00000KT

Waarnemingen en weersverwachtingen van meer dan 4000 vliegvelden (METAR en TAF).

De beschikbare stations zijn de gele en rode punten op de kaart.

Ga met uw muis naar het station om de naam te zien.

Klik dan om waarnemingen en weersverwachtingen te zien.

kaart wijzigen: klik op de groene knoppen met een zwart kruis om in te zoomen, op de groene knop met een streepje om uit te zoomen of op de groene pijlen voor aangrenzende kaarten.


METAR-TAF: